sensor_id;sensor_type;location;lat;lon;timestamp;P1;durP1;ratioP1;P2;durP2;ratioP2
25535;SDS011;13431;51.352;6.412;2022-12-26T00:00:57;4.70;;;3.08;;
25535;SDS011;13431;51.352;6.412;2022-12-26T00:03:26;3.22;;;2.95;;
25535;SDS011;13431;51.352;6.412;2022-12-26T00:05:56;3.72;;;3.28;;
25535;SDS011;13431;51.352;6.412;2022-12-26T00:08:23;3.47;;;3.15;;
25535;SDS011;13431;51.352;6.412;2022-12-26T00:10:50;3.88;;;3.45;;
25535;SDS011;13431;51.352;6.412;2022-12-26T00:13:18;4.05;;;3.28;;
25535;SDS011;13431;51.352;6.412;2022-12-26T00:16:15;3.38;;;2.80;;
25535;SDS011;13431;51.352;6.412;2022-12-26T00:18:45;3.65;;;3.20;;
25535;SDS011;13431;51.352;6.412;2022-12-26T00:21:13;3.88;;;3.50;;
25535;SDS011;13431;51.352;6.412;2022-12-26T00:23:41;3.38;;;3.08;;
25535;SDS011;13431;51.352;6.412;2022-12-26T00:26:10;3.60;;;3.30;;
25535;SDS011;13431;51.352;6.412;2022-12-26T00:28:39;3.85;;;3.55;;
25535;SDS011;13431;51.352;6.412;2022-12-26T00:31:09;4.07;;;3.70;;
25535;SDS011;13431;51.352;6.412;2022-12-26T00:33:42;4.75;;;3.88;;
25535;SDS011;13431;51.352;6.412;2022-12-26T00:36:13;4.80;;;4.30;;
25535;SDS011;13431;51.352;6.412;2022-12-26T00:38:42;4.65;;;4.25;;
25535;SDS011;13431;51.352;6.412;2022-12-26T00:41:11;4.82;;;4.00;;
25535;SDS011;13431;51.352;6.412;2022-12-26T00:43:39;4.25;;;3.85;;
25535;SDS011;13431;51.352;6.412;2022-12-26T00:46:07;6.13;;;4.85;;
25535;SDS011;13431;51.352;6.412;2022-12-26T00:48:35;3.88;;;3.58;;
25535;SDS011;13431;51.352;6.412;2022-12-26T00:51:03;3.75;;;3.45;;
25535;SDS011;13431;51.352;6.412;2022-12-26T00:53:31;2.60;;;2.40;;
25535;SDS011;13431;51.352;6.412;2022-12-26T00:55:59;2.65;;;2.45;;
25535;SDS011;13431;51.352;6.412;2022-12-26T00:58:26;2.33;;;2.13;;
25535;SDS011;13431;51.352;6.412;2022-12-26T01:00:53;2.85;;;1.85;;
25535;SDS011;13431;51.352;6.412;2022-12-26T01:03:21;2.65;;;2.45;;
25535;SDS011;13431;51.352;6.412;2022-12-26T01:05:49;2.83;;;2.20;;
25535;SDS011;13431;51.352;6.412;2022-12-26T01:08:17;2.45;;;2.22;;
25535;SDS011;13431;51.352;6.412;2022-12-26T01:10:49;2.40;;;2.20;;
25535;SDS011;13431;51.352;6.412;2022-12-26T01:13:17;2.88;;;2.67;;
25535;SDS011;13431;51.352;6.412;2022-12-26T01:15:48;2.55;;;2.35;;
25535;SDS011;13431;51.352;6.412;2022-12-26T01:18:18;2.40;;;2.20;;
25535;SDS011;13431;51.352;6.412;2022-12-26T01:20:46;2.20;;;2.00;;
25535;SDS011;13431;51.352;6.412;2022-12-26T01:23:14;3.13;;;2.42;;
25535;SDS011;13431;51.352;6.412;2022-12-26T01:25:42;2.30;;;2.20;;
25535;SDS011;13431;51.352;6.412;2022-12-26T01:28:29;3.30;;;3.00;;
25535;SDS011;13431;51.352;6.412;2022-12-26T01:31:03;3.20;;;2.55;;
25535;SDS011;13431;51.352;6.412;2022-12-26T01:33:31;3.28;;;2.83;;
25535;SDS011;13431;51.352;6.412;2022-12-26T01:35:59;3.30;;;3.10;;
25535;SDS011;13431;51.352;6.412;2022-12-26T01:38:26;8.05;;;3.25;;
25535;SDS011;13431;51.352;6.412;2022-12-26T01:40:53;3.85;;;3.55;;
25535;SDS011;13431;51.352;6.412;2022-12-26T01:46:18;4.20;;;3.83;;
25535;SDS011;13431;51.352;6.412;2022-12-26T01:49:18;4.20;;;3.80;;
25535;SDS011;13431;51.352;6.412;2022-12-26T01:51:57;4.05;;;3.65;;
25535;SDS011;13431;51.352;6.412;2022-12-26T01:54:28;4.20;;;3.90;;
25535;SDS011;13431;51.352;6.412;2022-12-26T01:57:12;3.92;;;3.63;;
25535;SDS011;13431;51.352;6.412;2022-12-26T01:59:47;5.03;;;3.47;;
25535;SDS011;13431;51.352;6.412;2022-12-26T02:02:17;4.05;;;3.65;;
25535;SDS011;13431;51.352;6.412;2022-12-26T02:04:48;3.65;;;3.38;;
25535;SDS011;13431;51.352;6.412;2022-12-26T02:07:36;3.95;;;3.65;;
25535;SDS011;13431;51.352;6.412;2022-12-26T02:10:06;3.88;;;3.58;;
25535;SDS011;13431;51.352;6.412;2022-12-26T02:12:38;3.53;;;3.22;;
25535;SDS011;13431;51.352;6.412;2022-12-26T02:15:11;4.32;;;3.50;;
25535;SDS011;13431;51.352;6.412;2022-12-26T02:17:41;4.15;;;3.83;;
25535;SDS011;13431;51.352;6.412;2022-12-26T02:22:52;4.32;;;3.92;;
25535;SDS011;13431;51.352;6.412;2022-12-26T02:28:25;4.20;;;3.90;;
25535;SDS011;13431;51.352;6.412;2022-12-26T02:30:57;6.03;;;5.22;;
25535;SDS011;13431;51.352;6.412;2022-12-26T02:36:45;5.53;;;5.03;;
25535;SDS011;13431;51.352;6.412;2022-12-26T02:48:10;6.63;;;6.03;;
25535;SDS011;13431;51.352;6.412;2022-12-26T02:50:52;6.65;;;6.15;;
25535;SDS011;13431;51.352;6.412;2022-12-26T02:56:52;7.60;;;6.70;;
25535;SDS011;13431;51.352;6.412;2022-12-26T02:59:54;7.23;;;6.63;;
25535;SDS011;13431;51.352;6.412;2022-12-26T03:02:45;7.03;;;6.53;;
25535;SDS011;13431;51.352;6.412;2022-12-26T03:05:43;7.45;;;6.85;;
25535;SDS011;13431;51.352;6.412;2022-12-26T03:08:47;6.72;;;6.13;;
25535;SDS011;13431;51.352;6.412;2022-12-26T03:11:39;8.00;;;7.40;;
25535;SDS011;13431;51.352;6.412;2022-12-26T03:14:28;7.60;;;6.90;;
25535;SDS011;13431;51.352;6.412;2022-12-26T03:17:03;7.70;;;7.05;;
25535;SDS011;13431;51.352;6.412;2022-12-26T03:19:55;7.25;;;6.65;;
25535;SDS011;13431;51.352;6.412;2022-12-26T03:25:08;7.88;;;7.18;;
25535;SDS011;13431;51.352;6.412;2022-12-26T03:27:57;9.10;;;6.32;;
25535;SDS011;13431;51.352;6.412;2022-12-26T03:30:24;7.93;;;7.22;;
25535;SDS011;13431;51.352;6.412;2022-12-26T03:33:10;7.20;;;6.60;;
25535;SDS011;13431;51.352;6.412;2022-12-26T03:35:56;8.10;;;7.38;;
25535;SDS011;13431;51.352;6.412;2022-12-26T03:38:31;9.65;;;8.70;;
25535;SDS011;13431;51.352;6.412;2022-12-26T03:42:01;8.10;;;7.40;;
25535;SDS011;13431;51.352;6.412;2022-12-26T03:44:46;7.78;;;7.03;;
25535;SDS011;13431;51.352;6.412;2022-12-26T03:47:58;7.43;;;6.72;;
25535;SDS011;13431;51.352;6.412;2022-12-26T03:50:54;7.82;;;7.13;;
25535;SDS011;13431;51.352;6.412;2022-12-26T03:53:51;7.13;;;6.53;;
25535;SDS011;13431;51.352;6.412;2022-12-26T03:56:49;7.95;;;7.15;;
25535;SDS011;13431;51.352;6.412;2022-12-26T03:59:50;7.75;;;7.05;;
25535;SDS011;13431;51.352;6.412;2022-12-26T04:02:44;11.15;;;9.60;;
25535;SDS011;13431;51.352;6.412;2022-12-26T04:05:32;7.85;;;7.05;;
25535;SDS011;13431;51.352;6.412;2022-12-26T04:08:23;7.30;;;6.70;;
25535;SDS011;13431;51.352;6.412;2022-12-26T04:11:19;8.40;;;7.60;;
25535;SDS011;13431;51.352;6.412;2022-12-26T04:14:11;8.43;;;7.60;;
25535;SDS011;13431;51.352;6.412;2022-12-26T04:23:56;7.70;;;7.00;;
25535;SDS011;13431;51.352;6.412;2022-12-26T04:26:49;7.85;;;7.15;;
25535;SDS011;13431;51.352;6.412;2022-12-26T04:29:37;9.90;;;7.60;;
25535;SDS011;13431;51.352;6.412;2022-12-26T04:35:25;8.90;;;7.10;;
25535;SDS011;13431;51.352;6.412;2022-12-26T04:38:15;7.82;;;7.15;;
25535;SDS011;13431;51.352;6.412;2022-12-26T04:41:08;7.22;;;6.57;;
25535;SDS011;13431;51.352;6.412;2022-12-26T04:43:56;8.73;;;7.93;;
25535;SDS011;13431;51.352;6.412;2022-12-26T04:46:38;7.63;;;6.93;;
25535;SDS011;13431;51.352;6.412;2022-12-26T04:49:11;7.95;;;7.22;;
25535;SDS011;13431;51.352;6.412;2022-12-26T04:51:59;8.98;;;8.07;;
25535;SDS011;13431;51.352;6.412;2022-12-26T04:54:29;8.57;;;7.78;;
25535;SDS011;13431;51.352;6.412;2022-12-26T04:56:57;9.13;;;8.32;;
25535;SDS011;13431;51.352;6.412;2022-12-26T04:59:24;7.57;;;6.95;;
25535;SDS011;13431;51.352;6.412;2022-12-26T05:01:53;8.00;;;7.25;;
25535;SDS011;13431;51.352;6.412;2022-12-26T05:04:39;9.70;;;7.88;;
25535;SDS011;13431;51.352;6.412;2022-12-26T05:07:29;8.65;;;7.63;;
25535;SDS011;13431;51.352;6.412;2022-12-26T05:10:18;8.10;;;7.32;;
25535;SDS011;13431;51.352;6.412;2022-12-26T05:12:53;8.07;;;7.28;;
25535;SDS011;13431;51.352;6.412;2022-12-26T05:15:21;8.23;;;7.53;;
25535;SDS011;13431;51.352;6.412;2022-12-26T05:17:47;8.70;;;7.43;;
25535;SDS011;13431;51.352;6.412;2022-12-26T05:20:44;9.55;;;8.65;;
25535;SDS011;13431;51.352;6.412;2022-12-26T05:23:15;7.90;;;7.10;;
25535;SDS011;13431;51.352;6.412;2022-12-26T05:26:19;9.50;;;7.45;;
25535;SDS011;13431;51.352;6.412;2022-12-26T05:29:06;8.15;;;6.95;;
25535;SDS011;13431;51.352;6.412;2022-12-26T05:31:33;8.23;;;6.93;;
25535;SDS011;13431;51.352;6.412;2022-12-26T05:34:03;7.65;;;6.85;;
25535;SDS011;13431;51.352;6.412;2022-12-26T05:36:52;7.43;;;6.50;;
25535;SDS011;13431;51.352;6.412;2022-12-26T05:39:23;8.15;;;6.38;;
25535;SDS011;13431;51.352;6.412;2022-12-26T05:41:50;7.88;;;6.55;;
25535;SDS011;13431;51.352;6.412;2022-12-26T05:44:16;8.05;;;7.15;;
25535;SDS011;13431;51.352;6.412;2022-12-26T05:46:43;7.35;;;6.45;;
25535;SDS011;13431;51.352;6.412;2022-12-26T05:49:11;9.18;;;7.57;;
25535;SDS011;13431;51.352;6.412;2022-12-26T05:51:37;8.48;;;7.15;;
25535;SDS011;13431;51.352;6.412;2022-12-26T05:54:04;9.18;;;7.28;;
25535;SDS011;13431;51.352;6.412;2022-12-26T05:56:30;9.85;;;7.60;;
25535;SDS011;13431;51.352;6.412;2022-12-26T05:58:57;9.05;;;7.47;;
25535;SDS011;13431;51.352;6.412;2022-12-26T06:01:25;8.57;;;6.78;;
25535;SDS011;13431;51.352;6.412;2022-12-26T06:03:54;8.77;;;7.65;;
25535;SDS011;13431;51.352;6.412;2022-12-26T06:06:22;8.48;;;7.38;;
25535;SDS011;13431;51.352;6.412;2022-12-26T06:08:49;7.85;;;7.03;;
25535;SDS011;13431;51.352;6.412;2022-12-26T06:11:17;8.38;;;7.53;;
25535;SDS011;13431;51.352;6.412;2022-12-26T06:13:44;9.32;;;7.15;;
25535;SDS011;13431;51.352;6.412;2022-12-26T06:16:11;8.88;;;7.28;;
25535;SDS011;13431;51.352;6.412;2022-12-26T06:18:39;7.70;;;6.90;;
25535;SDS011;13431;51.352;6.412;2022-12-26T06:21:06;8.93;;;7.57;;
25535;SDS011;13431;51.352;6.412;2022-12-26T06:23:36;10.27;;;6.82;;
25535;SDS011;13431;51.352;6.412;2022-12-26T06:26:03;8.52;;;7.28;;
25535;SDS011;13431;51.352;6.412;2022-12-26T06:28:30;7.57;;;6.78;;
25535;SDS011;13431;51.352;6.412;2022-12-26T06:31:03;7.57;;;6.82;;
25535;SDS011;13431;51.352;6.412;2022-12-26T06:33:30;8.40;;;7.55;;
25535;SDS011;13431;51.352;6.412;2022-12-26T06:36:03;7.20;;;6.50;;
25535;SDS011;13431;51.352;6.412;2022-12-26T06:38:32;7.57;;;6.47;;
25535;SDS011;13431;51.352;6.412;2022-12-26T06:40:59;7.72;;;6.15;;
25535;SDS011;13431;51.352;6.412;2022-12-26T06:43:26;7.38;;;6.43;;
25535;SDS011;13431;51.352;6.412;2022-12-26T06:45:55;7.70;;;6.90;;
25535;SDS011;13431;51.352;6.412;2022-12-26T06:48:23;7.00;;;6.30;;
25535;SDS011;13431;51.352;6.412;2022-12-26T06:50:49;6.53;;;5.93;;
25535;SDS011;13431;51.352;6.412;2022-12-26T06:53:16;6.28;;;5.53;;
25535;SDS011;13431;51.352;6.412;2022-12-26T06:55:42;5.88;;;5.38;;
25535;SDS011;13431;51.352;6.412;2022-12-26T06:58:09;6.05;;;5.47;;
25535;SDS011;13431;51.352;6.412;2022-12-26T07:00:35;5.95;;;5.45;;
25535;SDS011;13431;51.352;6.412;2022-12-26T07:03:01;6.18;;;5.07;;
25535;SDS011;13431;51.352;6.412;2022-12-26T07:05:28;5.55;;;4.95;;
25535;SDS011;13431;51.352;6.412;2022-12-26T07:07:54;6.38;;;5.38;;
25535;SDS011;13431;51.352;6.412;2022-12-26T07:10:20;6.93;;;5.60;;
25535;SDS011;13431;51.352;6.412;2022-12-26T07:12:46;5.57;;;5.07;;
25535;SDS011;13431;51.352;6.412;2022-12-26T07:15:13;5.03;;;4.50;;
25535;SDS011;13431;51.352;6.412;2022-12-26T07:17:40;5.18;;;4.63;;
25535;SDS011;13431;51.352;6.412;2022-12-26T07:20:06;5.70;;;5.20;;
25535;SDS011;13431;51.352;6.412;2022-12-26T07:22:33;5.80;;;5.18;;
25535;SDS011;13431;51.352;6.412;2022-12-26T07:24:59;6.93;;;5.03;;
25535;SDS011;13431;51.352;6.412;2022-12-26T07:27:26;5.85;;;4.95;;
25535;SDS011;13431;51.352;6.412;2022-12-26T07:29:52;6.68;;;5.50;;
25535;SDS011;13431;51.352;6.412;2022-12-26T07:32:18;5.75;;;5.13;;
25535;SDS011;13431;51.352;6.412;2022-12-26T07:34:44;5.60;;;5.10;;
25535;SDS011;13431;51.352;6.412;2022-12-26T07:37:11;6.72;;;4.85;;
25535;SDS011;13431;51.352;6.412;2022-12-26T07:39:37;5.72;;;3.72;;
25535;SDS011;13431;51.352;6.412;2022-12-26T07:42:03;4.80;;;4.10;;
25535;SDS011;13431;51.352;6.412;2022-12-26T07:44:31;4.78;;;3.78;;
25535;SDS011;13431;51.352;6.412;2022-12-26T07:47:15;5.15;;;4.05;;
25535;SDS011;13431;51.352;6.412;2022-12-26T07:52:16;3.42;;;2.83;;
25535;SDS011;13431;51.352;6.412;2022-12-26T07:54:43;4.03;;;3.72;;
25535;SDS011;13431;51.352;6.412;2022-12-26T07:57:10;3.40;;;3.10;;
25535;SDS011;13431;51.352;6.412;2022-12-26T07:59:56;5.05;;;3.08;;
25535;SDS011;13431;51.352;6.412;2022-12-26T08:02:24;3.72;;;3.13;;
25535;SDS011;13431;51.352;6.412;2022-12-26T08:04:51;5.20;;;3.45;;
25535;SDS011;13431;51.352;6.412;2022-12-26T08:07:18;2.95;;;2.65;;
25535;SDS011;13431;51.352;6.412;2022-12-26T08:09:46;4.88;;;3.00;;
25535;SDS011;13431;51.352;6.412;2022-12-26T08:12:13;3.33;;;2.78;;
25535;SDS011;13431;51.352;6.412;2022-12-26T08:14:40;4.53;;;2.95;;
25535;SDS011;13431;51.352;6.412;2022-12-26T08:17:08;3.97;;;2.42;;
25535;SDS011;13431;51.352;6.412;2022-12-26T08:19:35;3.47;;;2.17;;
25535;SDS011;13431;51.352;6.412;2022-12-26T08:22:02;2.30;;;2.10;;
25535;SDS011;13431;51.352;6.412;2022-12-26T08:24:30;7.10;;;2.80;;
25535;SDS011;13431;51.352;6.412;2022-12-26T08:26:57;2.40;;;2.20;;
25535;SDS011;13431;51.352;6.412;2022-12-26T08:29:24;3.22;;;2.00;;
25535;SDS011;13431;51.352;6.412;2022-12-26T08:31:52;2.22;;;1.83;;
25535;SDS011;13431;51.352;6.412;2022-12-26T08:34:19;2.45;;;2.00;;
25535;SDS011;13431;51.352;6.412;2022-12-26T08:36:49;2.95;;;1.98;;
25535;SDS011;13431;51.352;6.412;2022-12-26T08:39:17;2.28;;;1.70;;
25535;SDS011;13431;51.352;6.412;2022-12-26T08:41:44;5.13;;;1.80;;
25535;SDS011;13431;51.352;6.412;2022-12-26T08:44:12;2.38;;;1.85;;
25535;SDS011;13431;51.352;6.412;2022-12-26T08:46:55;2.13;;;2.00;;
25535;SDS011;13431;51.352;6.412;2022-12-26T08:49:23;2.35;;;1.60;;
25535;SDS011;13431;51.352;6.412;2022-12-26T08:51:50;3.08;;;1.80;;
25535;SDS011;13431;51.352;6.412;2022-12-26T08:54:18;2.47;;;1.40;;
25535;SDS011;13431;51.352;6.412;2022-12-26T08:56:45;3.05;;;1.77;;
25535;SDS011;13431;51.352;6.412;2022-12-26T08:59:12;1.45;;;1.30;;
25535;SDS011;13431;51.352;6.412;2022-12-26T09:01:40;2.40;;;1.40;;
25535;SDS011;13431;51.352;6.412;2022-12-26T09:04:08;4.32;;;1.65;;
25535;SDS011;13431;51.352;6.412;2022-12-26T09:06:36;2.05;;;1.23;;
25535;SDS011;13431;51.352;6.412;2022-12-26T09:09:06;2.78;;;2.53;;
25535;SDS011;13431;51.352;6.412;2022-12-26T09:11:34;4.07;;;1.60;;
25535;SDS011;13431;51.352;6.412;2022-12-26T09:14:02;1.45;;;1.27;;
25535;SDS011;13431;51.352;6.412;2022-12-26T09:16:31;1.95;;;1.75;;
25535;SDS011;13431;51.352;6.412;2022-12-26T09:19:13;3.85;;;1.90;;
25535;SDS011;13431;51.352;6.412;2022-12-26T09:21:43;1.75;;;1.20;;
25535;SDS011;13431;51.352;6.412;2022-12-26T09:24:12;4.43;;;1.70;;
25535;SDS011;13431;51.352;6.412;2022-12-26T09:26:41;2.63;;;1.05;;
25535;SDS011;13431;51.352;6.412;2022-12-26T09:29:10;2.97;;;1.25;;
25535;SDS011;13431;51.352;6.412;2022-12-26T09:31:38;1.38;;;1.27;;
25535;SDS011;13431;51.352;6.412;2022-12-26T09:34:06;4.05;;;1.40;;
25535;SDS011;13431;51.352;6.412;2022-12-26T09:36:34;3.05;;;0.90;;
25535;SDS011;13431;51.352;6.412;2022-12-26T09:39:06;4.55;;;2.05;;
25535;SDS011;13431;51.352;6.412;2022-12-26T09:41:41;1.15;;;0.77;;
25535;SDS011;13431;51.352;6.412;2022-12-26T09:55:25;1.88;;;1.00;;
25535;SDS011;13431;51.352;6.412;2022-12-26T09:58:22;2.07;;;1.07;;
25535;SDS011;13431;51.352;6.412;2022-12-26T10:00:51;2.25;;;0.90;;
25535;SDS011;13431;51.352;6.412;2022-12-26T10:03:39;1.63;;;1.27;;
25535;SDS011;13431;51.352;6.412;2022-12-26T10:06:10;1.08;;;0.90;;
25535;SDS011;13431;51.352;6.412;2022-12-26T10:26:08;2.03;;;1.00;;
25535;SDS011;13431;51.352;6.412;2022-12-26T10:42:33;3.53;;;1.45;;
25535;SDS011;13431;51.352;6.412;2022-12-26T10:47:44;1.95;;;0.85;;
25535;SDS011;13431;51.352;6.412;2022-12-26T10:50:17;1.33;;;0.85;;
25535;SDS011;13431;51.352;6.412;2022-12-26T10:52:54;3.08;;;1.45;;
25535;SDS011;13431;51.352;6.412;2022-12-26T10:55:28;4.32;;;1.25;;
25535;SDS011;13431;51.352;6.412;2022-12-26T10:58:14;3.25;;;1.20;;
25535;SDS011;13431;51.352;6.412;2022-12-26T11:00:54;0.70;;;0.70;;
25535;SDS011;13431;51.352;6.412;2022-12-26T11:03:21;3.17;;;1.30;;
25535;SDS011;13431;51.352;6.412;2022-12-26T11:05:50;1.75;;;1.00;;
25535;SDS011;13431;51.352;6.412;2022-12-26T11:11:20;2.38;;;0.98;;
25535;SDS011;13431;51.352;6.412;2022-12-26T11:13:54;1.48;;;1.05;;
25535;SDS011;13431;51.352;6.412;2022-12-26T11:16:33;1.33;;;0.80;;
25535;SDS011;13431;51.352;6.412;2022-12-26T11:19:04;1.45;;;1.23;;
25535;SDS011;13431;51.352;6.412;2022-12-26T11:21:31;2.97;;;0.90;;
25535;SDS011;13431;51.352;6.412;2022-12-26T11:26:32;2.25;;;0.90;;
25535;SDS011;13431;51.352;6.412;2022-12-26T11:31:38;3.03;;;1.08;;
25535;SDS011;13431;51.352;6.412;2022-12-26T11:34:09;2.35;;;0.80;;
25535;SDS011;13431;51.352;6.412;2022-12-26T11:39:22;3.10;;;0.93;;
25535;SDS011;13431;51.352;6.412;2022-12-26T11:41:52;1.70;;;0.98;;
25535;SDS011;13431;51.352;6.412;2022-12-26T11:47:06;3.15;;;1.05;;
25535;SDS011;13431;51.352;6.412;2022-12-26T11:49:40;1.95;;;1.00;;
25535;SDS011;13431;51.352;6.412;2022-12-26T12:00:36;2.15;;;0.85;;
25535;SDS011;13431;51.352;6.412;2022-12-26T12:03:09;2.60;;;1.27;;
25535;SDS011;13431;51.352;6.412;2022-12-26T12:14:03;2.17;;;1.25;;
25535;SDS011;13431;51.352;6.412;2022-12-26T12:16:57;3.58;;;1.42;;
25535;SDS011;13431;51.352;6.412;2022-12-26T12:19:36;1.50;;;1.10;;
25535;SDS011;13431;51.352;6.412;2022-12-26T12:28:03;2.42;;;1.13;;
25535;SDS011;13431;51.352;6.412;2022-12-26T12:37:11;3.30;;;0.90;;
25535;SDS011;13431;51.352;6.412;2022-12-26T12:39:49;3.25;;;1.17;;
25535;SDS011;13431;51.352;6.412;2022-12-26T13:05:14;5.68;;;1.50;;
25535;SDS011;13431;51.352;6.412;2022-12-26T13:08:03;11.32;;;5.28;;
25535;SDS011;13431;51.352;6.412;2022-12-26T13:10:53;6.90;;;2.63;;
25535;SDS011;13431;51.352;6.412;2022-12-26T13:13:29;3.80;;;1.25;;
25535;SDS011;13431;51.352;6.412;2022-12-26T13:18:55;6.93;;;2.10;;
25535;SDS011;13431;51.352;6.412;2022-12-26T13:21:26;5.40;;;1.80;;
25535;SDS011;13431;51.352;6.412;2022-12-26T13:29:44;2.15;;;1.30;;
25535;SDS011;13431;51.352;6.412;2022-12-26T13:32:20;3.75;;;1.30;;
25535;SDS011;13431;51.352;6.412;2022-12-26T13:50:49;5.07;;;2.17;;
25535;SDS011;13431;51.352;6.412;2022-12-26T13:55:57;8.40;;;2.05;;
25535;SDS011;13431;51.352;6.412;2022-12-26T13:58:35;4.55;;;1.40;;
25535;SDS011;13431;51.352;6.412;2022-12-26T14:03:45;4.72;;;1.85;;
25535;SDS011;13431;51.352;6.412;2022-12-26T14:06:42;5.75;;;2.05;;
25535;SDS011;13431;51.352;6.412;2022-12-26T14:15:00;4.97;;;1.80;;
25535;SDS011;13431;51.352;6.412;2022-12-26T14:20:44;6.57;;;1.75;;
25535;SDS011;13431;51.352;6.412;2022-12-26T14:23:58;5.65;;;2.17;;
25535;SDS011;13431;51.352;6.412;2022-12-26T14:31:48;5.30;;;2.50;;
25535;SDS011;13431;51.352;6.412;2022-12-26T14:39:59;5.20;;;2.15;;
25535;SDS011;13431;51.352;6.412;2022-12-26T14:42:30;4.15;;;1.90;;
25535;SDS011;13431;51.352;6.412;2022-12-26T14:53:45;3.95;;;2.00;;
25535;SDS011;13431;51.352;6.412;2022-12-26T14:56:42;5.85;;;3.00;;
25535;SDS011;13431;51.352;6.412;2022-12-26T14:59:29;5.65;;;3.63;;
25535;SDS011;13431;51.352;6.412;2022-12-26T15:02:09;5.30;;;2.22;;
25535;SDS011;13431;51.352;6.412;2022-12-26T15:05:03;4.93;;;2.65;;
25535;SDS011;13431;51.352;6.412;2022-12-26T15:24:51;4.22;;;1.83;;
25535;SDS011;13431;51.352;6.412;2022-12-26T15:32:56;3.83;;;1.75;;
25535;SDS011;13431;51.352;6.412;2022-12-26T15:35:35;5.13;;;2.00;;
25535;SDS011;13431;51.352;6.412;2022-12-26T15:38:14;4.35;;;2.10;;
25535;SDS011;13431;51.352;6.412;2022-12-26T15:41:12;3.33;;;1.70;;
25535;SDS011;13431;51.352;6.412;2022-12-26T15:44:02;2.58;;;1.60;;
25535;SDS011;13431;51.352;6.412;2022-12-26T15:47:36;5.15;;;2.22;;
25535;SDS011;13431;51.352;6.412;2022-12-26T15:49:58;3.53;;;1.80;;
25535;SDS011;13431;51.352;6.412;2022-12-26T15:52:48;3.55;;;1.73;;
25535;SDS011;13431;51.352;6.412;2022-12-26T15:55:41;11.55;;;4.03;;
25535;SDS011;13431;51.352;6.412;2022-12-26T16:01:09;3.33;;;1.98;;
25535;SDS011;13431;51.352;6.412;2022-12-26T16:03:41;4.57;;;2.28;;
25535;SDS011;13431;51.352;6.412;2022-12-26T16:17:36;5.13;;;2.13;;
25535;SDS011;13431;51.352;6.412;2022-12-26T16:20:28;2.85;;;1.58;;
25535;SDS011;13431;51.352;6.412;2022-12-26T16:23:17;6.25;;;2.15;;
25535;SDS011;13431;51.352;6.412;2022-12-26T16:25:48;2.67;;;1.52;;
25535;SDS011;13431;51.352;6.412;2022-12-26T16:28:54;5.63;;;2.17;;
25535;SDS011;13431;51.352;6.412;2022-12-26T16:31:18;4.28;;;1.88;;
25535;SDS011;13431;51.352;6.412;2022-12-26T16:33:49;2.75;;;1.48;;
25535;SDS011;13431;51.352;6.412;2022-12-26T16:36:19;2.17;;;1.30;;
25535;SDS011;13431;51.352;6.412;2022-12-26T16:38:50;2.85;;;1.35;;
25535;SDS011;13431;51.352;6.412;2022-12-26T16:43:51;6.65;;;1.50;;
25535;SDS011;13431;51.352;6.412;2022-12-26T16:46:23;1.65;;;1.30;;
25535;SDS011;13431;51.352;6.412;2022-12-26T16:48:58;3.67;;;1.42;;
25535;SDS011;13431;51.352;6.412;2022-12-26T16:51:43;6.13;;;1.40;;
25535;SDS011;13431;51.352;6.412;2022-12-26T16:54:55;4.05;;;1.20;;
25535;SDS011;13431;51.352;6.412;2022-12-26T16:57:06;4.22;;;1.65;;
25535;SDS011;13431;51.352;6.412;2022-12-26T16:59:43;3.35;;;1.45;;
25535;SDS011;13431;51.352;6.412;2022-12-26T17:02:17;2.58;;;1.40;;
25535;SDS011;13431;51.352;6.412;2022-12-26T17:04:52;6.45;;;1.50;;
25535;SDS011;13431;51.352;6.412;2022-12-26T17:07:24;6.88;;;2.17;;
25535;SDS011;13431;51.352;6.412;2022-12-26T17:09:54;4.55;;;1.20;;
25535;SDS011;13431;51.352;6.412;2022-12-26T17:12:29;6.95;;;2.40;;
25535;SDS011;13431;51.352;6.412;2022-12-26T17:14:59;3.70;;;1.20;;
25535;SDS011;13431;51.352;6.412;2022-12-26T17:17:30;7.85;;;1.85;;
25535;SDS011;13431;51.352;6.412;2022-12-26T17:22:49;4.53;;;1.58;;
25535;SDS011;13431;51.352;6.412;2022-12-26T17:25:19;3.47;;;1.20;;
25535;SDS011;13431;51.352;6.412;2022-12-26T17:30:38;4.35;;;1.63;;
25535;SDS011;13431;51.352;6.412;2022-12-26T17:33:14;4.57;;;1.90;;
25535;SDS011;13431;51.352;6.412;2022-12-26T17:36:04;6.97;;;1.73;;
25535;SDS011;13431;51.352;6.412;2022-12-26T17:38:53;5.20;;;1.60;;
25535;SDS011;13431;51.352;6.412;2022-12-26T17:41:20;4.03;;;1.63;;
25535;SDS011;13431;51.352;6.412;2022-12-26T17:43:47;4.50;;;1.77;;
25535;SDS011;13431;51.352;6.412;2022-12-26T17:46:16;6.95;;;2.45;;
25535;SDS011;13431;51.352;6.412;2022-12-26T17:48:44;8.77;;;3.45;;
25535;SDS011;13431;51.352;6.412;2022-12-26T17:51:13;7.15;;;3.45;;
25535;SDS011;13431;51.352;6.412;2022-12-26T17:53:46;7.20;;;3.00;;
25535;SDS011;13431;51.352;6.412;2022-12-26T17:56:16;6.55;;;2.20;;
25535;SDS011;13431;51.352;6.412;2022-12-26T17:58:49;5.43;;;1.92;;
25535;SDS011;13431;51.352;6.412;2022-12-26T18:01:16;4.60;;;2.45;;
25535;SDS011;13431;51.352;6.412;2022-12-26T18:03:48;5.10;;;2.63;;
25535;SDS011;13431;51.352;6.412;2022-12-26T18:06:15;6.25;;;2.65;;
25535;SDS011;13431;51.352;6.412;2022-12-26T18:08:43;7.40;;;2.15;;
25535;SDS011;13431;51.352;6.412;2022-12-26T18:11:11;3.67;;;2.25;;
25535;SDS011;13431;51.352;6.412;2022-12-26T18:13:40;3.88;;;2.03;;
25535;SDS011;13431;51.352;6.412;2022-12-26T18:16:09;10.18;;;2.72;;
25535;SDS011;13431;51.352;6.412;2022-12-26T18:18:42;4.00;;;2.45;;
25535;SDS011;13431;51.352;6.412;2022-12-26T18:21:12;3.60;;;2.80;;
25535;SDS011;13431;51.352;6.412;2022-12-26T18:23:41;4.13;;;2.50;;
25535;SDS011;13431;51.352;6.412;2022-12-26T18:26:27;10.70;;;4.32;;
25535;SDS011;13431;51.352;6.412;2022-12-26T18:28:55;6.15;;;2.97;;
25535;SDS011;13431;51.352;6.412;2022-12-26T18:31:23;3.40;;;2.63;;
25535;SDS011;13431;51.352;6.412;2022-12-26T18:33:54;9.90;;;2.78;;
25535;SDS011;13431;51.352;6.412;2022-12-26T18:36:32;4.57;;;2.67;;
25535;SDS011;13431;51.352;6.412;2022-12-26T18:39:13;5.65;;;3.55;;
25535;SDS011;13431;51.352;6.412;2022-12-26T18:41:42;9.18;;;3.30;;
25535;SDS011;13431;51.352;6.412;2022-12-26T18:44:18;5.88;;;3.17;;
25535;SDS011;13431;51.352;6.412;2022-12-26T18:46:46;7.82;;;2.88;;
25535;SDS011;13431;51.352;6.412;2022-12-26T18:49:15;3.88;;;2.65;;
25535;SDS011;13431;51.352;6.412;2022-12-26T18:51:44;11.30;;;3.22;;
25535;SDS011;13431;51.352;6.412;2022-12-26T18:54:14;6.10;;;2.33;;
25535;SDS011;13431;51.352;6.412;2022-12-26T18:56:41;8.20;;;2.58;;
25535;SDS011;13431;51.352;6.412;2022-12-26T18:59:10;7.72;;;2.75;;
25535;SDS011;13431;51.352;6.412;2022-12-26T19:01:39;8.52;;;2.60;;
25535;SDS011;13431;51.352;6.412;2022-12-26T19:04:07;8.70;;;4.10;;
25535;SDS011;13431;51.352;6.412;2022-12-26T19:06:39;9.23;;;3.47;;
25535;SDS011;13431;51.352;6.412;2022-12-26T19:09:10;9.07;;;3.35;;
25535;SDS011;13431;51.352;6.412;2022-12-26T19:11:39;11.35;;;3.85;;
25535;SDS011;13431;51.352;6.412;2022-12-26T19:14:15;11.43;;;4.35;;
25535;SDS011;13431;51.352;6.412;2022-12-26T19:16:48;10.52;;;3.97;;
25535;SDS011;13431;51.352;6.412;2022-12-26T19:19:16;4.57;;;3.00;;
25535;SDS011;13431;51.352;6.412;2022-12-26T19:21:44;7.80;;;3.95;;
25535;SDS011;13431;51.352;6.412;2022-12-26T19:24:11;12.32;;;4.20;;
25535;SDS011;13431;51.352;6.412;2022-12-26T19:26:39;10.05;;;5.20;;
25535;SDS011;13431;51.352;6.412;2022-12-26T19:29:07;7.85;;;4.05;;
25535;SDS011;13431;51.352;6.412;2022-12-26T19:31:35;5.85;;;3.67;;
25535;SDS011;13431;51.352;6.412;2022-12-26T19:34:02;8.73;;;4.35;;
25535;SDS011;13431;51.352;6.412;2022-12-26T19:36:30;10.27;;;4.82;;
25535;SDS011;13431;51.352;6.412;2022-12-26T19:38:58;12.13;;;4.25;;
25535;SDS011;13431;51.352;6.412;2022-12-26T19:41:25;9.70;;;4.30;;
25535;SDS011;13431;51.352;6.412;2022-12-26T19:43:53;11.52;;;5.78;;